createdAt,value
2023-01-29T00:01:55.595Z,63.03
2023-01-29T00:04:22.753Z,63.23
2023-01-29T00:06:49.317Z,64.33
2023-01-29T00:09:15.871Z,63.99
2023-01-29T00:11:42.358Z,63.82
2023-01-29T00:14:09.246Z,63.44
2023-01-29T00:16:35.816Z,64.33
2023-01-29T00:19:03.736Z,64.75
2023-01-29T00:21:31.168Z,65.29
2023-01-29T00:23:58.370Z,64.17
2023-01-29T00:26:26.034Z,63.73
2023-01-29T00:28:54.431Z,63.24
2023-01-29T00:31:27.291Z,64.46
2023-01-29T00:33:54.040Z,64.78
2023-01-29T00:36:21.970Z,63.35
2023-01-29T00:38:53.859Z,62.94
2023-01-29T00:41:21.707Z,62.42
2023-01-29T00:43:48.287Z,61.85
2023-01-29T00:46:14.871Z,61.28
2023-01-29T00:48:41.565Z,60.03
2023-01-29T00:51:08.090Z,61.03
2023-01-29T00:53:34.579Z,60.58
2023-01-29T00:56:01.121Z,60.55
2023-01-29T00:58:29.789Z,61.35
2023-01-29T01:00:56.581Z,61.32
2023-01-29T01:03:23.186Z,60.97
2023-01-29T01:05:49.710Z,61.38
2023-01-29T01:08:16.381Z,61.65
2023-01-29T01:10:42.899Z,61.61
2023-01-29T01:13:09.463Z,62.61
2023-01-29T01:15:40.052Z,61.21
2023-01-29T01:18:06.666Z,60.08
2023-01-29T01:20:34.864Z,60.34
2023-01-29T01:23:01.363Z,60.03
2023-01-29T01:25:28.176Z,60.41
2023-01-29T01:27:56.882Z,61.35
2023-01-29T01:30:24.045Z,61.09
2023-01-29T01:32:51.688Z,61.16
2023-01-29T01:35:18.664Z,61.34
2023-01-29T01:37:45.231Z,61.48
2023-01-29T01:40:19.047Z,61.80
2023-01-29T01:42:55.807Z,61.25
2023-01-29T01:45:34.733Z,61.23
2023-01-29T01:48:07.755Z,60.91
2023-01-29T01:50:52.134Z,60.92
2023-01-29T01:53:24.807Z,62.46
2023-01-29T01:56:02.049Z,62.58
2023-01-29T01:58:36.812Z,62.86
2023-01-29T02:01:07.794Z,63.05
2023-01-29T02:03:45.637Z,62.91
2023-01-29T02:06:12.283Z,62.81
2023-01-29T02:08:52.667Z,62.83
2023-01-29T02:11:19.873Z,62.37
2023-01-29T02:13:46.608Z,62.58
2023-01-29T02:16:13.060Z,63.03
2023-01-29T02:18:39.669Z,64.21
2023-01-29T02:21:40.261Z,62.71
2023-01-29T02:24:31.115Z,61.82
2023-01-29T02:27:09.352Z,63.47
2023-01-29T02:29:44.502Z,62.56
2023-01-29T02:32:29.760Z,60.95
2023-01-29T02:35:10.186Z,60.24
2023-01-29T02:38:01.606Z,60.77
2023-01-29T02:40:41.031Z,59.68
2023-01-29T02:43:33.037Z,61.45
2023-01-29T02:46:11.684Z,61.77
2023-01-29T02:48:59.501Z,61.74
2023-01-29T02:51:35.708Z,61.66
2023-01-29T02:54:14.364Z,60.90
2023-01-29T02:56:53.787Z,61.92
2023-01-29T02:59:28.257Z,60.65
2023-01-29T03:02:07.561Z,60.23
2023-01-29T03:04:41.754Z,61.56
2023-01-29T03:07:17.471Z,61.29
2023-01-29T03:09:50.506Z,62.75
2023-01-29T03:12:28.424Z,65.02
2023-01-29T03:14:59.852Z,64.66
2023-01-29T03:17:33.597Z,64.71
2023-01-29T03:20:04.799Z,65.14
2023-01-29T03:22:32.933Z,64.67
2023-01-29T03:25:04.581Z,63.82
2023-01-29T03:27:38.485Z,64.06
2023-01-29T03:30:12.089Z,63.21
2023-01-29T03:32:39.049Z,61.55
2023-01-29T03:35:10.345Z,62.69
2023-01-29T03:37:45.932Z,62.01
2023-01-29T03:40:13.694Z,61.33
2023-01-29T03:43:03.496Z,61.56
2023-01-29T03:45:51.745Z,62.38
2023-01-29T03:48:33.784Z,62.65
2023-01-29T03:51:22.211Z,62.79
2023-01-29T03:54:01.091Z,63.88
2023-01-29T03:56:33.562Z,63.77
2023-01-29T03:59:12.401Z,64.70
2023-01-29T04:01:46.305Z,64.41
2023-01-29T04:04:24.350Z,63.26
2023-01-29T04:06:56.486Z,63.47
2023-01-29T04:09:40.202Z,64.66
2023-01-29T04:12:11.381Z,64.71
2023-01-29T04:14:39.100Z,64.75
2023-01-29T04:17:16.460Z,64.49
2023-01-29T04:19:43.840Z,64.33
2023-01-29T04:22:26.084Z,64.05
2023-01-29T04:24:52.996Z,63.90
2023-01-29T04:27:52.299Z,64.57
2023-01-29T04:30:54.055Z,65.22
2023-01-29T04:33:28.044Z,64.34
2023-01-29T04:36:13.151Z,63.69
2023-01-29T04:38:42.390Z,63.37
2023-01-29T04:41:31.757Z,62.94
2023-01-29T04:44:14.792Z,64.29
2023-01-29T04:46:52.320Z,66.13
2023-01-29T04:49:35.173Z,65.83
2023-01-29T04:52:20.026Z,64.52
2023-01-29T04:55:16.699Z,63.80
2023-01-29T04:58:03.085Z,65.51
2023-01-29T05:00:36.981Z,63.94
2023-01-29T05:03:04.772Z,64.09
2023-01-29T05:05:31.357Z,65.17
2023-01-29T05:07:59.469Z,64.79
2023-01-29T05:10:26.625Z,63.88
2023-01-29T05:13:01.241Z,63.51
2023-01-29T05:15:41.771Z,63.22
2023-01-29T05:18:08.863Z,63.60
2023-01-29T05:20:40.034Z,62.30
2023-01-29T05:23:18.133Z,61.82
2023-01-29T05:25:45.271Z,61.57
2023-01-29T05:28:11.813Z,61.69
2023-01-29T05:30:39.946Z,62.16
2023-01-29T05:33:24.174Z,61.91
2023-01-29T05:35:51.020Z,61.48
2023-01-29T05:38:18.776Z,61.74
2023-01-29T05:40:45.698Z,61.44
2023-01-29T05:43:17.799Z,60.64
2023-01-29T05:45:55.298Z,61.85
2023-01-29T05:48:22.094Z,61.77
2023-01-29T05:50:49.447Z,61.65
2023-01-29T05:53:16.025Z,60.65
2023-01-29T05:55:47.207Z,60.84
2023-01-29T05:58:14.372Z,61.01
2023-01-29T06:00:41.943Z,62.65
2023-01-29T06:03:08.496Z,62.16
2023-01-29T06:05:38.642Z,63.17
2023-01-29T06:08:05.829Z,62.58
2023-01-29T06:10:32.854Z,62.85
2023-01-29T06:12:59.365Z,62.12
2023-01-29T06:15:26.090Z,63.06
2023-01-29T06:17:56.655Z,61.65
2023-01-29T06:20:24.151Z,60.24
2023-01-29T06:22:50.643Z,60.60
2023-01-29T06:25:17.174Z,59.31
2023-01-29T06:27:43.719Z,59.18
2023-01-29T06:30:10.707Z,58.97
2023-01-29T06:32:37.229Z,59.04
2023-01-29T06:35:04.067Z,59.46
2023-01-29T06:37:30.551Z,58.19
2023-01-29T06:39:57.060Z,57.65
2023-01-29T06:42:23.628Z,58.11
2023-01-29T06:44:50.087Z,58.74
2023-01-29T06:47:16.557Z,58.71
2023-01-29T06:49:43.122Z,60.27
2023-01-29T06:52:09.599Z,61.04
2023-01-29T06:54:36.121Z,61.37
2023-01-29T06:57:02.718Z,61.23
2023-01-29T06:59:29.256Z,61.45
2023-01-29T07:01:55.838Z,61.80
2023-01-29T07:04:22.450Z,61.80
2023-01-29T07:06:48.992Z,60.72
2023-01-29T07:09:15.471Z,59.70
2023-01-29T07:11:42.176Z,60.53
2023-01-29T07:14:08.713Z,60.94
2023-01-29T07:16:35.273Z,61.08
2023-01-29T07:19:01.904Z,61.45
2023-01-29T07:21:28.396Z,61.53
2023-01-29T07:23:54.985Z,61.25
2023-01-29T07:26:21.624Z,60.94
2023-01-29T07:28:48.167Z,61.73
2023-01-29T07:31:14.768Z,61.55
2023-01-29T07:33:43.760Z,61.47
2023-01-29T07:36:12.033Z,62.18
2023-01-29T07:38:38.641Z,61.03
2023-01-29T07:41:05.302Z,59.73
2023-01-29T07:43:32.021Z,60.01
2023-01-29T07:46:03.327Z,59.61
2023-01-29T07:48:29.890Z,58.22
2023-01-29T07:50:57.295Z,57.75
2023-01-29T07:53:24.220Z,57.38
2023-01-29T07:55:51.299Z,58.73
2023-01-29T07:58:17.928Z,59.24
2023-01-29T08:00:44.927Z,59.79
2023-01-29T08:03:17.496Z,60.20
2023-01-29T08:05:44.785Z,59.56
2023-01-29T08:08:11.347Z,59.05
2023-01-29T08:10:39.569Z,57.80
2023-01-29T08:13:07.168Z,56.40
2023-01-29T08:15:36.069Z,56.09
2023-01-29T08:18:04.741Z,55.19
2023-01-29T08:20:31.251Z,54.74
2023-01-29T08:23:03.185Z,54.67
2023-01-29T08:25:30.269Z,54.29
2023-01-29T08:27:58.319Z,54.65
2023-01-29T08:30:27.466Z,54.02
2023-01-29T08:32:53.966Z,53.46
2023-01-29T08:35:21.213Z,52.69
2023-01-29T08:37:55.291Z,52.34
2023-01-29T08:40:22.244Z,51.69
2023-01-29T08:42:48.901Z,51.16
2023-01-29T08:45:15.891Z,53.96
2023-01-29T08:47:50.032Z,54.19
2023-01-29T08:50:18.173Z,53.72
2023-01-29T08:52:45.883Z,54.06
2023-01-29T08:55:12.422Z,53.54
2023-01-29T08:57:39.362Z,53.40
2023-01-29T09:00:07.724Z,52.78
2023-01-29T09:02:34.265Z,53.30
2023-01-29T09:05:00.745Z,52.92
2023-01-29T09:07:29.327Z,52.82
2023-01-29T09:09:55.831Z,51.75
2023-01-29T09:12:22.372Z,51.54
2023-01-29T09:14:48.897Z,50.69
2023-01-29T09:17:15.477Z,51.77
2023-01-29T09:19:42.093Z,52.17
2023-01-29T09:22:10.375Z,52.36
2023-01-29T09:24:38.103Z,52.56
2023-01-29T09:27:04.606Z,53.11
2023-01-29T09:29:31.104Z,51.87
2023-01-29T09:31:57.743Z,51.44
2023-01-29T09:34:24.363Z,51.39
2023-01-29T09:36:52.240Z,51.79
2023-01-29T09:39:18.727Z,50.77
2023-01-29T09:42:14.639Z,50.95
2023-01-29T09:44:55.212Z,51.23
2023-01-29T09:47:25.595Z,51.60
2023-01-29T09:50:30.127Z,51.97
2023-01-29T09:53:16.740Z,50.80
2023-01-29T09:55:52.675Z,51.34
2023-01-29T09:58:36.119Z,49.36
2023-01-29T10:01:12.024Z,50.12
2023-01-29T10:04:03.345Z,49.04
2023-01-29T10:06:57.416Z,49.52
2023-01-29T10:09:44.993Z,49.10
2023-01-29T10:12:31.299Z,49.06
2023-01-29T10:15:04.593Z,48.93
2023-01-29T10:18:16.458Z,48.47
2023-01-29T10:21:17.198Z,49.58
2023-01-29T10:23:54.546Z,49.60
2023-01-29T10:26:27.039Z,49.52
2023-01-29T10:28:58.634Z,50.45
2023-01-29T10:31:31.771Z,50.43
2023-01-29T10:34:14.670Z,52.09
2023-01-29T10:36:47.425Z,50.30
2023-01-29T10:39:22.177Z,49.59
2023-01-29T10:42:19.126Z,49.97
2023-01-29T10:45:17.154Z,50.00
2023-01-29T10:48:11.789Z,48.98
2023-01-29T10:50:54.902Z,50.11
2023-01-29T10:53:43.929Z,49.31
2023-01-29T10:56:30.205Z,50.06
2023-01-29T10:59:04.158Z,49.28
2023-01-29T11:01:31.430Z,49.16
2023-01-29T11:04:04.396Z,48.55
2023-01-29T11:06:35.595Z,47.97
2023-01-29T11:09:23.721Z,48.11
2023-01-29T11:11:53.761Z,47.88
2023-01-29T11:14:34.311Z,48.61
2023-01-29T11:17:00.892Z,48.37
2023-01-29T11:19:40.201Z,48.12
2023-01-29T11:22:16.805Z,48.14
2023-01-29T11:24:44.230Z,48.53
2023-01-29T11:27:24.262Z,47.83
2023-01-29T11:29:53.790Z,47.99
2023-01-29T11:32:21.255Z,48.06
2023-01-29T11:35:03.882Z,48.13
2023-01-29T11:37:36.737Z,47.68
2023-01-29T11:40:36.770Z,48.34
2023-01-29T11:43:29.172Z,47.70
2023-01-29T11:46:05.961Z,47.67
2023-01-29T11:48:49.196Z,47.87
2023-01-29T11:51:27.690Z,46.73
2023-01-29T11:54:02.733Z,45.93
2023-01-29T11:56:38.884Z,45.87
2023-01-29T11:59:05.870Z,46.27
2023-01-29T12:01:35.316Z,45.80
2023-01-29T12:04:04.319Z,45.85
2023-01-29T12:06:40.812Z,46.01
2023-01-29T12:09:18.140Z,45.51
2023-01-29T12:11:44.888Z,46.39
2023-01-29T12:14:33.620Z,46.44
2023-01-29T12:17:21.771Z,45.85
2023-01-29T12:20:00.380Z,46.05
2023-01-29T12:22:59.368Z,45.53
2023-01-29T12:25:35.702Z,45.65
2023-01-29T12:28:28.252Z,46.22
2023-01-29T12:31:08.407Z,46.53
2023-01-29T12:33:51.926Z,46.45
2023-01-29T12:37:01.439Z,46.99
2023-01-29T12:39:27.947Z,46.02
2023-01-29T12:42:04.602Z,46.24
2023-01-29T12:44:38.870Z,45.26
2023-01-29T12:47:12.365Z,45.47
2023-01-29T12:49:41.743Z,45.06
2023-01-29T12:52:28.565Z,44.87
2023-01-29T12:55:06.150Z,44.32
2023-01-29T12:57:43.938Z,44.18
2023-01-29T13:00:20.268Z,44.22
2023-01-29T13:02:57.981Z,44.91
2023-01-29T13:05:50.964Z,44.51
2023-01-29T13:08:41.122Z,44.81
2023-01-29T13:11:23.965Z,44.25
2023-01-29T13:14:06.776Z,44.47
2023-01-29T13:16:43.585Z,44.56
2023-01-29T13:19:23.894Z,44.34
2023-01-29T13:21:54.500Z,44.24
2023-01-29T13:24:25.289Z,44.23
2023-01-29T13:26:52.032Z,44.42
2023-01-29T13:29:29.065Z,44.04
2023-01-29T13:32:02.163Z,44.27
2023-01-29T13:34:37.880Z,43.93
2023-01-29T13:37:16.282Z,43.84
2023-01-29T13:39:52.439Z,43.61
2023-01-29T13:42:39.048Z,44.17
2023-01-29T13:45:09.036Z,44.28
2023-01-29T13:47:39.236Z,44.30
2023-01-29T13:50:21.216Z,43.73
2023-01-29T13:53:03.174Z,43.93
2023-01-29T13:55:33.508Z,44.15
2023-01-29T13:58:17.344Z,44.04
2023-01-29T14:00:43.796Z,44.32
2023-01-29T14:03:10.247Z,44.10
2023-01-29T14:05:54.933Z,44.08
2023-01-29T14:08:45.291Z,43.97
2023-01-29T14:11:14.710Z,44.32
2023-01-29T14:13:47.241Z,44.23
2023-01-29T14:16:13.749Z,44.24
2023-01-29T14:19:01.732Z,44.83
2023-01-29T14:21:32.684Z,44.85
2023-01-29T14:24:19.931Z,44.62
2023-01-29T14:26:52.789Z,45.43
2023-01-29T14:29:34.230Z,46.17
2023-01-29T14:32:18.573Z,47.67
2023-01-29T14:34:50.179Z,48.34
2023-01-29T14:37:17.816Z,48.23
2023-01-29T14:39:58.123Z,49.80
2023-01-29T14:42:32.032Z,50.79
2023-01-29T14:45:30.093Z,51.59
2023-01-29T14:48:16.808Z,54.11
2023-01-29T14:50:50.929Z,54.38
2023-01-29T14:53:45.267Z,54.18
2023-01-29T14:56:19.062Z,53.89
2023-01-29T14:58:50.931Z,54.41
2023-01-29T15:01:33.449Z,55.11
2023-01-29T15:04:05.628Z,55.97
2023-01-29T15:06:54.958Z,57.59
2023-01-29T15:09:36.650Z,56.48
2023-01-29T15:12:18.608Z,55.84
2023-01-29T15:15:15.867Z,56.38
2023-01-29T15:18:01.728Z,55.49
2023-01-29T15:20:37.124Z,54.80
2023-01-29T15:23:30.084Z,53.54
2023-01-29T15:26:00.318Z,52.89
2023-01-29T15:28:30.076Z,51.86
2023-01-29T15:30:59.305Z,52.62
2023-01-29T15:33:29.784Z,53.40
2023-01-29T15:36:08.538Z,52.79
2023-01-29T15:38:35.904Z,53.14
2023-01-29T15:41:16.355Z,53.46
2023-01-29T15:43:57.682Z,54.02
2023-01-29T15:46:28.436Z,54.63
2023-01-29T15:48:57.544Z,54.33
2023-01-29T15:51:41.706Z,53.96
2023-01-29T15:54:15.937Z,53.36
2023-01-29T15:56:47.887Z,53.60
2023-01-29T15:59:29.222Z,53.57
2023-01-29T16:01:55.857Z,52.18
2023-01-29T16:04:29.263Z,52.93
2023-01-29T16:07:00.207Z,53.15
2023-01-29T16:09:28.982Z,53.21
2023-01-29T16:11:59.057Z,53.56
2023-01-29T16:14:28.398Z,54.66
2023-01-29T16:16:55.045Z,55.04
2023-01-29T16:19:28.282Z,57.27
2023-01-29T16:22:08.398Z,58.66
2023-01-29T16:24:38.106Z,59.30
2023-01-29T16:27:14.034Z,59.19
2023-01-29T16:29:41.083Z,58.92
2023-01-29T16:32:09.179Z,57.47
2023-01-29T16:34:39.083Z,57.55
2023-01-29T16:37:28.216Z,55.99
2023-01-29T16:39:55.680Z,54.93
2023-01-29T16:42:28.271Z,53.73
2023-01-29T16:45:03.924Z,53.38
2023-01-29T16:47:38.838Z,52.88
2023-01-29T16:50:17.376Z,52.02
2023-01-29T16:53:01.554Z,51.20
2023-01-29T16:55:39.610Z,51.21
2023-01-29T16:58:18.856Z,50.77
2023-01-29T17:00:50.420Z,51.09
2023-01-29T17:03:19.308Z,50.57
2023-01-29T17:05:47.350Z,50.79
2023-01-29T17:08:25.033Z,50.33
2023-01-29T17:10:52.321Z,50.66
2023-01-29T17:13:25.635Z,50.19
2023-01-29T17:15:52.375Z,49.79
2023-01-29T17:18:24.354Z,49.40
2023-01-29T17:20:51.875Z,49.82
2023-01-29T17:23:18.854Z,49.83
2023-01-29T17:25:51.845Z,49.61
2023-01-29T17:28:18.566Z,49.49
2023-01-29T17:30:56.671Z,49.88
2023-01-29T17:33:26.970Z,49.29
2023-01-29T17:35:53.624Z,49.52
2023-01-29T17:38:26.001Z,50.17
2023-01-29T17:41:08.476Z,50.29
2023-01-29T17:43:35.065Z,50.56
2023-01-29T17:46:01.620Z,50.47
2023-01-29T17:48:29.815Z,50.03
2023-01-29T17:51:00.587Z,50.38
2023-01-29T17:53:43.238Z,50.40
2023-01-29T17:56:20.041Z,50.95
2023-01-29T17:58:46.522Z,50.59
2023-01-29T18:01:13.063Z,50.96
2023-01-29T18:03:42.686Z,51.06
2023-01-29T18:06:11.632Z,51.03
2023-01-29T18:08:39.646Z,51.58
2023-01-29T18:11:06.481Z,52.15
2023-01-29T18:13:33.057Z,51.67
2023-01-29T18:15:59.731Z,51.84
2023-01-29T18:18:26.245Z,51.99
2023-01-29T18:20:52.804Z,52.18
2023-01-29T18:23:19.296Z,52.12
2023-01-29T18:25:45.943Z,52.68
2023-01-29T18:28:17.620Z,52.63
2023-01-29T18:30:47.079Z,53.17
2023-01-29T18:33:14.734Z,53.50
2023-01-29T18:35:41.288Z,53.64
2023-01-29T18:38:07.788Z,53.81
2023-01-29T18:40:34.521Z,53.83
2023-01-29T18:43:01.030Z,53.68
2023-01-29T18:45:28.573Z,54.27
2023-01-29T18:47:55.683Z,54.46
2023-01-29T18:50:22.183Z,54.60
2023-01-29T18:52:49.398Z,55.12
2023-01-29T18:55:16.328Z,55.22
2023-01-29T18:58:26.124Z,54.39
2023-01-29T19:00:29.518Z,55.23
2023-01-29T19:02:56.009Z,55.06
2023-01-29T19:05:22.546Z,55.12
2023-01-29T19:07:48.992Z,55.01
2023-01-29T19:10:15.825Z,54.71
2023-01-29T19:12:42.990Z,54.55
2023-01-29T19:15:11.793Z,54.62
2023-01-29T19:17:38.729Z,54.27
2023-01-29T19:20:05.462Z,54.89
2023-01-29T19:22:34.252Z,55.34
2023-01-29T19:25:00.715Z,55.27
2023-01-29T19:27:27.236Z,55.46
2023-01-29T19:29:53.717Z,55.37
2023-01-29T19:32:20.221Z,55.62
2023-01-29T19:34:46.671Z,55.57
2023-01-29T19:37:16.124Z,54.75
2023-01-29T19:39:42.652Z,55.03
2023-01-29T19:42:09.115Z,54.94
2023-01-29T19:44:35.657Z,55.37
2023-01-29T19:47:02.300Z,56.31
2023-01-29T19:49:29.263Z,56.83
2023-01-29T19:51:55.758Z,57.91
2023-01-29T19:54:22.235Z,58.53
2023-01-29T19:56:48.708Z,59.31
2023-01-29T19:59:15.167Z,60.64
2023-01-29T20:01:41.640Z,60.55
2023-01-29T20:04:08.143Z,59.71
2023-01-29T20:06:34.780Z,59.41
2023-01-29T20:09:01.285Z,59.82
2023-01-29T20:11:27.784Z,60.08
2023-01-29T20:13:56.583Z,59.39
2023-01-29T20:16:24.878Z,59.49
2023-01-29T20:18:51.727Z,59.49
2023-01-29T20:21:20.309Z,59.77
2023-01-29T20:23:50.042Z,59.17
2023-01-29T20:26:17.757Z,59.39
2023-01-29T20:28:48.107Z,59.83
2023-01-29T20:31:15.762Z,60.59
2023-01-29T20:33:42.353Z,60.97
2023-01-29T20:36:12.086Z,62.04
2023-01-29T20:38:38.661Z,61.82
2023-01-29T20:41:16.973Z,60.59
2023-01-29T20:43:44.887Z,59.77
2023-01-29T20:46:11.972Z,59.63
2023-01-29T20:48:38.655Z,59.93
2023-01-29T20:51:10.847Z,59.11
2023-01-29T20:53:37.691Z,58.70
2023-01-29T20:56:05.194Z,59.19
2023-01-29T20:58:35.722Z,58.67
2023-01-29T21:01:07.935Z,58.39
2023-01-29T21:03:34.590Z,58.02
2023-01-29T21:06:01.097Z,57.90
2023-01-29T21:08:27.616Z,57.80
2023-01-29T21:10:54.271Z,57.15
2023-01-29T21:13:20.759Z,57.00
2023-01-29T21:15:50.143Z,56.41
2023-01-29T21:18:16.953Z,55.89
2023-01-29T21:20:43.440Z,56.54
2023-01-29T21:23:10.334Z,56.25
2023-01-29T21:25:36.919Z,56.68
2023-01-29T21:28:03.460Z,56.77
2023-01-29T21:30:31.585Z,56.38
2023-01-29T21:32:58.062Z,56.64
2023-01-29T21:35:26.775Z,56.68
2023-01-29T21:37:53.308Z,56.42
2023-01-29T21:40:20.184Z,56.20
2023-01-29T21:42:58.024Z,55.96
2023-01-29T21:45:24.585Z,55.95
2023-01-29T21:47:56.811Z,55.44
2023-01-29T21:50:29.691Z,56.46
2023-01-29T21:52:56.260Z,56.47
2023-01-29T21:55:22.806Z,56.11
2023-01-29T21:57:49.403Z,55.95
2023-01-29T22:00:17.020Z,55.68
2023-01-29T22:02:43.860Z,56.52
2023-01-29T22:05:18.689Z,56.10
2023-01-29T22:07:46.609Z,55.58
2023-01-29T22:10:13.232Z,55.61
2023-01-29T22:12:42.268Z,55.60
2023-01-29T22:15:09.314Z,55.32
2023-01-29T22:17:36.106Z,55.31
2023-01-29T22:20:02.612Z,55.31
2023-01-29T22:22:29.153Z,55.21
2023-01-29T22:24:55.603Z,55.03
2023-01-29T22:27:22.068Z,55.81
2023-01-29T22:29:48.561Z,55.47
2023-01-29T22:32:15.087Z,55.92
2023-01-29T22:34:41.565Z,56.12
2023-01-29T22:37:08.072Z,55.79
2023-01-29T22:39:34.560Z,55.95
2023-01-29T22:42:01.060Z,56.15
2023-01-29T22:44:27.604Z,55.67
2023-01-29T22:46:54.127Z,56.18
2023-01-29T22:49:20.615Z,56.16
2023-01-29T22:51:47.152Z,55.91
2023-01-29T22:54:13.824Z,55.84
2023-01-29T22:56:40.335Z,55.87
2023-01-29T22:59:06.786Z,55.90
2023-01-29T23:01:33.309Z,55.68
2023-01-29T23:03:59.827Z,55.41
2023-01-29T23:06:26.420Z,55.05
2023-01-29T23:08:53.054Z,55.22
2023-01-29T23:11:21.080Z,55.21
2023-01-29T23:13:53.167Z,55.43
2023-01-29T23:16:22.895Z,55.82
2023-01-29T23:18:53.321Z,55.63
2023-01-29T23:21:22.264Z,55.31
2023-01-29T23:23:49.144Z,55.44
2023-01-29T23:26:15.652Z,55.73
2023-01-29T23:28:42.806Z,55.40
2023-01-29T23:31:09.377Z,54.92
2023-01-29T23:33:35.868Z,55.19
2023-01-29T23:36:02.428Z,55.21
2023-01-29T23:38:28.941Z,54.96
2023-01-29T23:40:55.462Z,54.64
2023-01-29T23:43:21.926Z,54.63
2023-01-29T23:45:48.424Z,54.13
2023-01-29T23:48:15.281Z,54.35
2023-01-29T23:50:41.779Z,54.17
2023-01-29T23:53:08.347Z,54.17
2023-01-29T23:55:34.947Z,54.16
2023-01-29T23:58:01.423Z,54.66
